Narrandera Airport, Australia

11:27 AM AEDT on December 03, 2016 (GMT +1100)
LEETON | | Change Station

Elev 453 ft 34.55 °S, 146.37 °E | Updated 1 minute ago

Clear
Clear
90.3 °F
Feels Like 87 °F
N
2.9
Wind Variable Wind from North
Gusts 6.9 mph

Today
High -- | Low -- °F
--% Chance of Precip.
Yesterday
High -- | Low -- °F
Precip. -- in
Pressure 29.92 in
Visibility 6.2 miles
Clouds
Heat Index 87 °F
Dew Point 49 °F
Humidity 24%
Rainfall 0.00 in
Snow Depth Not available.
5:53 AM 8:14 PM
Waxing Crescent, 11% visible
METAR YGTH 030000Z AUTO 17007KT 130V230 9999 // NCD 30/07 Q1013
Pressure 29.92 in
Visibility 6.2 miles
Clouds
Heat Index 87 °F
Dew Point 49 °F
Humidity 24%
Rainfall 0.00 in
Snow Depth Not available.
5:53 AM 8:14 PM
Waxing Crescent, 11% visible
METAR YGTH 030000Z AUTO 17007KT 130V230 9999 // NCD 30/07 Q1013

10-Day Weather Forecast

×

Almanac

Astronomy

Dec. 03, 2016 Rise Set
Actual Time
Civil Twilight
Nautical Twilight
Astronomical Twilight
Moon
Length of Visible Light
Length of Day
Tomorrow will be .
, % of the Moon is Illuminated

Today's Extremes

Country Highs Country Lows

Community

WunderPhotos

Upload Photos

1,955,380 photos uploaded!

WunderBlog® & News

Nearby

Air Quality

  Air Quality AQ Index Pollutant
Not available.

Snow Depth

Station Depth Elevation

Earthquake Activity

City Distance Mag. Time & Date
Minimum magnitude displayed is 2.5.

Coastal Water Temperatures

Place Temperature

Stations

Nearby Weather Stations

Station Location Temp. Windchill Dew Point Humidity Wind Precip. Elev Updated Type